createdAt,value
2019-05-20T00:04:05.039Z,766.80
2019-05-20T00:09:10.436Z,704.35
2019-05-20T00:14:18.546Z,670.10
2019-05-20T00:19:24.158Z,550.75
2019-05-20T00:24:29.359Z,535.95
2019-05-20T00:29:34.616Z,498.65
2019-05-20T00:34:40.141Z,458.80
2019-05-20T00:39:45.315Z,395.30
2019-05-20T00:44:50.577Z,309.70
2019-05-20T00:49:56.649Z,284.10
2019-05-20T00:59:59.771Z,205.15
2019-05-20T01:05:04.873Z,139.00
2019-05-20T01:10:15.369Z,325.80
2019-05-20T01:15:28.369Z,756.90
2019-05-20T01:20:33.499Z,612.60
2019-05-20T01:25:38.563Z,686.50
2019-05-20T01:30:43.784Z,627.33
2019-05-20T01:35:49.564Z,803.15
2019-05-20T01:40:54.604Z,778.10
2019-05-20T01:45:59.688Z,740.85
2019-05-20T01:51:04.726Z,576.70
2019-05-20T01:56:09.764Z,578.90
2019-05-20T02:01:14.810Z,523.10
2019-05-20T02:06:20.074Z,471.17
2019-05-20T02:11:25.200Z,429.60
2019-05-20T02:16:31.159Z,351.80
2019-05-20T02:21:36.241Z,257.40
2019-05-20T02:26:41.278Z,215.20
2019-05-20T02:31:46.321Z,170.05
2019-05-20T02:36:51.366Z,113.40
2019-05-20T02:41:56.426Z,112.80
2019-05-20T02:47:01.486Z,82.35
2019-05-20T02:52:06.524Z,59.40
2019-05-20T02:57:11.574Z,48.40
2019-05-20T03:02:16.643Z,44.00
2019-05-20T03:07:21.676Z,37.90
2019-05-20T03:12:26.728Z,37.70
2019-05-20T03:17:31.793Z,36.95
2019-05-20T03:22:36.785Z,35.30
2019-05-20T03:27:41.878Z,35.45
2019-05-20T03:32:47.027Z,34.40
2019-05-20T03:37:52.061Z,32.20
2019-05-20T03:42:57.118Z,32.90
2019-05-20T03:48:02.272Z,32.05
2019-05-20T03:53:07.311Z,31.40
2019-05-20T03:58:13.560Z,30.85
2019-05-20T04:03:19.175Z,31.20
2019-05-20T04:08:24.216Z,30.30
2019-05-20T04:13:29.272Z,31.60
2019-05-20T04:18:34.298Z,30.85
2019-05-20T04:23:39.486Z,30.70
2019-05-20T04:28:44.822Z,29.40
2019-05-20T04:33:49.885Z,29.80
2019-05-20T04:38:56.547Z,28.60
2019-05-20T04:44:01.609Z,28.60
2019-05-20T04:49:06.658Z,29.60
2019-05-20T04:55:42.634Z,29.50
2019-05-20T05:00:47.677Z,29.85
2019-05-20T05:05:53.349Z,27.80
2019-05-20T05:10:58.785Z,28.60
2019-05-20T05:16:03.805Z,30.10
2019-05-20T05:21:08.890Z,29.50
2019-05-20T05:26:13.946Z,29.15
2019-05-20T05:31:19.007Z,29.65
2019-05-20T05:36:24.197Z,29.25
2019-05-20T05:41:29.085Z,29.60
2019-05-20T05:46:34.165Z,29.40
2019-05-20T05:51:39.308Z,29.05
2019-05-20T05:56:44.355Z,30.45
2019-05-20T06:01:49.539Z,26.80
2019-05-20T06:06:54.549Z,28.80
2019-05-20T06:11:59.607Z,27.90
2019-05-20T06:17:04.699Z,27.10
2019-05-20T06:22:09.701Z,26.40
2019-05-20T06:27:14.749Z,26.30
2019-05-20T06:32:19.810Z,27.80
2019-05-20T06:37:29.464Z,29.50
2019-05-20T06:42:34.508Z,27.90
2019-05-20T06:47:39.549Z,27.90
2019-05-20T06:52:44.605Z,28.80
2019-05-20T06:57:49.655Z,28.25
2019-05-20T07:02:54.704Z,28.80
2019-05-20T07:08:01.630Z,28.70
2019-05-20T07:13:06.957Z,28.00
2019-05-20T07:18:12.106Z,28.10
2019-05-20T07:23:17.498Z,26.30
2019-05-20T07:28:22.906Z,31.40
2019-05-20T07:33:27.967Z,42.40
2019-05-20T07:38:33.021Z,144.80
2019-05-20T07:43:38.058Z,226.20
2019-05-20T07:48:43.135Z,169.00
2019-05-20T07:53:48.197Z,179.70
2019-05-20T07:58:53.226Z,90.10
2019-05-20T08:03:58.370Z,84.95
2019-05-20T08:09:03.429Z,89.00
2019-05-20T08:14:08.475Z,68.10
2019-05-20T08:19:13.522Z,50.50
2019-05-20T08:24:18.576Z,48.70
2019-05-20T08:29:23.719Z,44.00
2019-05-20T08:34:28.863Z,35.35
2019-05-20T08:39:33.923Z,33.40
2019-05-20T08:44:39.077Z,30.80
2019-05-20T08:49:44.321Z,31.45
2019-05-20T08:54:49.521Z,29.60
2019-05-20T08:59:54.512Z,30.70
2019-05-20T09:04:59.613Z,29.10
2019-05-20T09:10:04.629Z,28.40
2019-05-20T09:15:09.680Z,28.40
2019-05-20T09:20:14.720Z,26.80
2019-05-20T09:25:19.851Z,26.50
2019-05-20T09:30:24.991Z,27.05
2019-05-20T09:35:30.088Z,28.00
2019-05-20T09:40:35.175Z,26.90
2019-05-20T09:45:40.156Z,28.50
2019-05-20T09:50:45.118Z,26.90
2019-05-20T09:55:50.134Z,27.60
2019-05-20T10:00:55.126Z,27.35
2019-05-20T10:06:00.169Z,27.10
2019-05-20T10:11:05.234Z,26.03
2019-05-20T10:16:11.200Z,27.70
2019-05-20T10:21:16.237Z,26.15
2019-05-20T10:26:21.327Z,26.70
2019-05-20T10:31:26.453Z,25.90
2019-05-20T10:36:31.446Z,27.70
2019-05-20T10:41:36.521Z,26.90
2019-05-20T10:46:41.474Z,27.25
2019-05-20T10:51:46.519Z,26.60
2019-05-20T10:57:35.079Z,24.90
2019-05-20T11:02:40.135Z,26.90
2019-05-20T11:07:45.223Z,25.80
2019-05-20T11:12:51.168Z,25.60
2019-05-20T11:17:56.211Z,25.90
2019-05-20T11:23:01.530Z,26.90
2019-05-20T11:28:11.562Z,25.10
2019-05-20T11:33:14.044Z,26.50
2019-05-20T11:38:19.063Z,25.90
2019-05-20T11:43:24.114Z,25.15
2019-05-20T11:48:29.180Z,25.20
2019-05-20T11:53:34.213Z,27.30
2019-05-20T11:58:39.878Z,26.70
2019-05-20T12:03:44.954Z,25.60
2019-05-20T12:08:49.967Z,25.55
2019-05-20T12:13:55.030Z,25.60
2019-05-20T12:19:00.068Z,28.30
2019-05-20T12:24:05.118Z,26.70
2019-05-20T12:29:10.172Z,25.50
2019-05-20T12:34:15.232Z,25.95
2019-05-20T12:39:20.269Z,26.45
2019-05-20T12:44:25.527Z,27.40
2019-05-20T12:49:30.718Z,25.75
2019-05-20T12:54:36.134Z,27.00
2019-05-20T12:59:41.305Z,28.25
2019-05-20T13:04:46.354Z,27.55
2019-05-20T13:09:51.378Z,27.10
2019-05-20T13:14:56.431Z,26.85
2019-05-20T13:20:01.521Z,26.80
2019-05-20T13:25:06.554Z,26.20
2019-05-20T13:30:11.619Z,27.90
2019-05-20T13:35:16.647Z,27.35
2019-05-20T13:40:21.998Z,38.90
2019-05-20T13:45:27.565Z,114.30
2019-05-20T13:50:36.155Z,58.75
2019-05-20T13:55:41.337Z,88.00
2019-05-20T14:00:46.474Z,268.90
2019-05-20T14:05:51.542Z,347.40
2019-05-20T14:11:04.255Z,310.80
2019-05-20T14:16:03.374Z,297.05
2019-05-20T14:21:08.430Z,272.80
2019-05-20T14:26:13.511Z,285.85
2019-05-20T14:31:18.629Z,244.10
2019-05-20T14:36:38.543Z,345.85
2019-05-20T14:41:30.551Z,362.70
2019-05-20T14:46:35.620Z,337.40
2019-05-20T14:51:40.676Z,312.30
2019-05-20T14:56:45.829Z,363.60
2019-05-20T15:01:50.971Z,511.95
2019-05-20T15:06:56.016Z,474.90
2019-05-20T15:12:01.074Z,447.45
2019-05-20T15:17:06.273Z,424.25
2019-05-20T15:22:11.482Z,363.20
2019-05-20T15:27:16.624Z,403.80
2019-05-20T15:32:21.783Z,522.90
2019-05-20T15:37:27.128Z,543.50
2019-05-20T15:42:32.142Z,442.80
2019-05-20T15:47:37.229Z,417.70
2019-05-20T15:52:42.582Z,387.65
2019-05-20T15:57:47.856Z,295.40
2019-05-20T16:02:53.004Z,277.30
2019-05-20T16:07:58.051Z,222.20
2019-05-20T16:13:03.425Z,155.85
2019-05-20T16:18:08.568Z,152.20
2019-05-20T16:23:13.603Z,269.70
2019-05-20T16:28:18.747Z,282.40
2019-05-20T16:33:23.812Z,318.35
2019-05-20T16:38:28.971Z,216.20
2019-05-20T16:43:34.035Z,238.80
2019-05-20T16:48:39.978Z,186.55
2019-05-20T16:53:46.153Z,237.70
2019-05-20T16:59:02.965Z,349.30
2019-05-20T17:04:08.020Z,388.00
2019-05-20T17:09:13.298Z,440.70
2019-05-20T17:14:18.438Z,488.50
2019-05-20T17:19:23.425Z,397.30
2019-05-20T17:24:31.991Z,323.60
2019-05-20T17:29:37.097Z,320.00
2019-05-20T17:34:42.737Z,313.60
2019-05-20T17:39:47.872Z,315.20
2019-05-20T17:44:52.927Z,352.65
2019-05-20T17:49:57.985Z,375.50
2019-05-20T17:55:03.035Z,431.30
2019-05-20T18:00:09.497Z,346.70
2019-05-20T18:05:20.028Z,291.60
2019-05-20T18:10:25.955Z,366.75
2019-05-20T18:15:32.453Z,457.50
2019-05-20T18:20:37.473Z,516.95
2019-05-20T18:25:42.545Z,556.20
2019-05-20T18:30:47.588Z,557.10
2019-05-20T18:35:52.643Z,535.85
2019-05-20T18:40:57.701Z,566.20
2019-05-20T18:46:02.737Z,713.80
2019-05-20T18:51:07.789Z,636.30
2019-05-20T18:56:12.839Z,562.30
2019-05-20T19:01:19.729Z,573.40
2019-05-20T19:06:24.679Z,472.37
2019-05-20T19:11:29.712Z,532.15
2019-05-20T19:16:34.760Z,558.85
2019-05-20T19:21:39.808Z,578.85
2019-05-20T19:26:46.401Z,572.10
2019-05-20T19:32:01.425Z,488.80
2019-05-20T19:36:59.063Z,539.20
2019-05-20T19:42:04.227Z,547.90
2019-05-20T19:47:09.496Z,552.00
2019-05-20T19:52:15.807Z,466.00
2019-05-20T19:57:20.909Z,511.50
2019-05-20T20:02:26.915Z,457.80
2019-05-20T20:07:34.002Z,466.45
2019-05-20T20:12:40.913Z,649.25
2019-05-20T20:17:46.016Z,654.00
2019-05-20T20:22:51.051Z,713.60
2019-05-20T20:27:56.217Z,699.20
2019-05-20T20:33:01.483Z,649.55
2019-05-20T20:38:07.125Z,628.70
2019-05-20T20:43:12.206Z,642.60
2019-05-20T20:48:17.237Z,627.50
2019-05-20T20:53:22.739Z,632.85
2019-05-20T20:58:27.933Z,642.70
2019-05-20T21:03:33.009Z,712.20
2019-05-20T21:08:38.050Z,674.00
2019-05-20T21:13:43.064Z,607.80
2019-05-20T21:18:48.127Z,628.50
2019-05-20T21:23:53.339Z,599.10
2019-05-20T21:28:58.445Z,565.50
2019-05-20T21:34:03.908Z,574.90
2019-05-20T21:39:09.483Z,537.00
2019-05-20T21:44:14.514Z,682.90
2019-05-20T21:49:21.514Z,765.20
2019-05-20T21:54:26.660Z,780.35
2019-05-20T21:59:31.705Z,762.80
2019-05-20T22:04:37.040Z,817.05
2019-05-20T22:09:43.559Z,848.43
2019-05-20T22:14:48.856Z,920.30
2019-05-20T22:19:54.365Z,896.65
2019-05-20T22:24:59.748Z,841.20
2019-05-20T22:30:06.203Z,817.50
2019-05-20T22:35:13.155Z,794.70
2019-05-20T22:40:18.454Z,757.50
2019-05-20T22:45:23.467Z,730.85
2019-05-20T22:50:28.560Z,676.25
2019-05-20T23:00:55.003Z,631.40
2019-05-20T23:06:00.069Z,510.25
2019-05-20T23:11:05.120Z,399.10
2019-05-20T23:16:10.538Z,375.10
2019-05-20T23:21:17.992Z,561.90
2019-05-20T23:31:28.081Z,635.05
2019-05-20T23:36:33.147Z,474.60
2019-05-20T23:41:38.177Z,426.50
2019-05-20T23:46:43.339Z,535.60
2019-05-20T23:51:48.384Z,624.10
2019-05-20T23:56:53.441Z,561.70
